Time;durP1;ratioP1;P1;durP2;ratioP2;P2;SDS_P1;SDS_P2;PMS_P1;PMS_P2;Temp;Humidity;BMP_temperature;BMP_pressure;BME280_temperature;BME280_humidity;BME280_pressure;Samples;Min_cycle;Max_cycle;Signal;HPM_P1;HPM_P2
2021/12/08 00:00:39;;;;;;;33.37;15.33;;;;;;;-1.26;100.00;95653.91;10608718;28;20174;-62
2021/12/08 00:05:44;;;;;;;22.23;11.77;;;;;;;-1.00;100.00;95633.22;10608086;28;20203;-61
2021/12/08 00:16:00;;;;;;;40.67;19.03;;;;;;;-1.05;100.00;95618.13;10608304;28;20237;-63
2021/12/08 00:21:04;;;;;;;39.50;17.97;;;;;;;-1.12;100.00;95607.50;10608014;28;20227;-62
2021/12/08 00:26:05;;;;;;;34.27;15.73;;;;;;;-1.05;100.00;95604.47;10608320;28;20171;-62
2021/12/08 00:31:06;;;;;;;40.67;19.13;;;;;;;-1.01;100.00;95598.16;10607924;28;20209;-62
2021/12/08 00:36:12;;;;;;;37.10;16.07;;;;;;;-0.85;100.00;95588.38;10607964;28;20440;-63
2021/12/08 00:41:12;;;;;;;35.53;16.83;;;;;;;-0.88;100.00;95588.59;10608077;28;20287;-63
2021/12/08 00:46:13;;;;;;;37.80;15.90;;;;;;;-0.74;100.00;95580.66;10607345;28;20176;-62
2021/12/08 00:51:13;;;;;;;29.13;12.90;;;;;;;-0.68;100.00;95574.25;10607883;28;20166;-63
2021/12/08 00:56:14;;;;;;;26.77;13.13;;;;;;;-0.65;100.00;95568.88;10609524;28;20174;-63
2021/12/08 01:01:15;;;;;;;28.23;13.63;;;;;;;-0.54;100.00;95557.78;10615070;28;20301;-61
2021/12/08 01:06:17;;;;;;;24.50;11.77;;;;;;;-0.48;100.00;95548.78;10615249;28;20185;-63
2021/12/08 01:11:19;;;;;;;24.03;11.50;;;;;;;-0.47;100.00;95540.16;10614988;28;20384;-61
2021/12/08 01:16:21;;;;;;;20.47;11.07;;;;;;;-0.48;100.00;95539.31;10614387;28;20210;-62
2021/12/08 01:21:21;;;;;;;19.87;10.90;;;;;;;-0.47;100.00;95528.09;10614667;28;20170;-63
2021/12/08 01:26:22;;;;;;;18.40;9.97;;;;;;;-0.56;100.00;95505.66;10614433;28;20177;-62
2021/12/08 01:31:23;;;;;;;10.67;6.70;;;;;;;-0.38;100.00;95488.78;10613792;28;20170;-61
2021/12/08 01:36:24;;;;;;;16.13;9.10;;;;;;;-0.44;100.00;95467.88;10613772;28;20172;-64
2021/12/08 01:41:25;;;;;;;13.97;8.90;;;;;;;-0.46;100.00;95464.59;10614018;28;20185;-62
2021/12/08 01:46:25;;;;;;;12.97;7.67;;;;;;;-0.41;100.00;95445.28;10612818;28;20204;-63
2021/12/08 01:51:26;;;;;;;9.03;5.70;;;;;;;-0.33;100.00;95424.09;10613762;28;20165;-63
2021/12/08 01:56:26;;;;;;;12.07;6.27;;;;;;;-0.42;100.00;95419.69;10612813;28;20279;-61
2021/12/08 02:01:28;;;;;;;7.63;5.47;;;;;;;-0.38;100.00;95423.66;10612408;28;20392;-62
2021/12/08 02:06:29;;;;;;;9.33;6.00;;;;;;;-0.31;100.00;95399.06;10612136;28;20249;-60
2021/12/08 02:11:29;;;;;;;10.97;7.43;;;;;;;-0.38;100.00;95391.00;10611657;28;20170;-62
2021/12/08 02:16:31;;;;;;;12.90;7.27;;;;;;;-0.36;100.00;95373.69;10611999;28;20216;-64
2021/12/08 02:21:33;;;;;;;13.07;7.37;;;;;;;-0.34;100.00;95355.56;10612101;28;20174;-62
2021/12/08 02:26:35;;;;;;;11.57;5.37;;;;;;;-0.45;100.00;95345.31;10611885;28;20186;-62
2021/12/08 02:52:23;;;;;;;9.87;6.70;;;;;;;-0.46;100.00;95290.50;10610981;28;20162;-60
2021/12/08 02:57:26;;;;;;;9.17;5.03;;;;;;;-0.42;100.00;95291.84;10610453;28;20167;-63
2021/12/08 03:02:27;;;;;;;6.00;4.00;;;;;;;-0.27;100.00;95276.94;10610544;28;20325;-62
2021/12/08 03:07:28;;;;;;;6.30;3.53;;;;;;;-0.31;100.00;95277.31;10609779;28;20203;-64
2021/12/08 03:12:30;;;;;;;7.10;4.40;;;;;;;-0.27;100.00;95261.50;10609899;28;20262;-65
2021/12/08 03:17:30;;;;;;;8.33;4.40;;;;;;;-0.20;100.00;95248.94;10609830;28;20290;-62
2021/12/08 03:22:32;;;;;;;8.20;4.90;;;;;;;-0.17;100.00;95246.09;10609913;28;20177;-61
2021/12/08 03:27:37;;;;;;;5.47;2.67;;;;;;;-0.16;100.00;95242.59;10609183;28;20412;-62
2021/12/08 03:32:39;;;;;;;10.50;4.27;;;;;;;-0.17;100.00;95230.66;10609780;28;20190;-61
2021/12/08 03:37:44;;;;;;;11.23;5.50;;;;;;;-0.22;100.00;95231.03;10609375;28;20175;-59
2021/12/08 03:42:46;;;;;;;8.50;4.70;;;;;;;-0.29;100.00;95218.81;10608902;28;20166;-64
2021/12/08 03:47:48;;;;;;;15.00;6.17;;;;;;;-0.36;100.00;95237.31;10609180;28;20209;-60
2021/12/08 03:52:49;;;;;;;13.17;6.60;;;;;;;-0.39;100.00;95224.72;10608921;28;20169;-61
2021/12/08 03:57:49;;;;;;;15.23;6.40;;;;;;;-0.38;100.00;95226.34;10608494;28;20196;-60
2021/12/08 04:02:50;;;;;;;11.47;5.77;;;;;;;-0.46;100.00;95222.78;10600694;28;20280;-60
2021/12/08 04:07:52;;;;;;;11.20;5.77;;;;;;;-0.57;100.00;95227.06;10561547;28;20381;-63
2021/12/08 04:12:54;;;;;;;10.83;6.57;;;;;;;-0.66;100.00;95229.53;10559405;28;20190;-57
2021/12/08 04:17:54;;;;;;;16.37;7.90;;;;;;;-0.76;100.00;95230.28;10560423;28;20203;-61
2021/12/08 04:22:58;;;;;;;12.87;7.40;;;;;;;-0.71;100.00;95235.06;10559793;28;20190;-61
2021/12/08 04:28:01;;;;;;;13.07;5.90;;;;;;;-0.61;100.00;95219.72;10560258;28;20656;-62
2021/12/08 04:33:02;;;;;;;6.70;3.93;;;;;;;-0.39;100.00;95216.19;10564857;28;20167;-61
2021/12/08 04:38:08;;;;;;;8.17;5.23;;;;;;;-0.32;100.00;95203.63;10568515;28;20166;-61
2021/12/08 05:05:02;;;;;;;12.20;7.40;;;;;;;-0.64;100.00;95215.63;10572058;28;20170;-63
2021/12/08 05:10:16;;;;;;;9.60;6.13;;;;;;;-0.49;100.00;95212.75;10572488;28;20257;-61
2021/12/08 05:15:30;;;;;;;14.73;8.00;;;;;;;-0.53;100.00;95221.66;10554641;28;20218;-62
2021/12/08 05:20:41;;;;;;;12.87;6.43;;;;;;;-0.51;100.00;95225.72;10572558;28;20162;-66
2021/12/08 05:25:42;;;;;;;11.27;5.93;;;;;;;-0.53;100.00;95243.03;10571794;28;20190;-65
2021/12/08 05:30:56;;;;;;;9.00;5.73;;;;;;;-0.55;100.00;95239.78;10572011;28;20225;-64
2021/12/08 05:35:58;;;;;;;10.30;5.30;;;;;;;-0.48;100.00;95238.34;10571254;28;20219;-63
2021/12/08 05:41:16;;;;;;;10.43;7.80;;;;;;;-0.51;100.00;95237.78;10571459;28;20182;-61
2021/12/08 05:46:17;;;;;;;14.07;8.70;;;;;;;-0.69;100.00;95233.16;10569959;28;20246;-63
2021/12/08 05:51:24;;;;;;;9.57;5.97;;;;;;;-0.72;100.00;95226.53;10570823;28;20253;-64
2021/12/08 05:56:26;;;;;;;13.60;7.77;;;;;;;-0.72;100.00;95241.97;10570772;28;20429;-65
2021/12/08 06:01:37;;;;;;;14.43;8.00;;;;;;;-0.77;100.00;95241.50;10570815;28;20251;-64
2021/12/08 06:06:38;;;;;;;15.07;7.40;;;;;;;-0.82;100.00;95241.06;10569582;28;20602;-64
2021/12/08 06:11:39;;;;;;;11.20;5.87;;;;;;;-0.84;100.00;95242.13;10570325;28;20241;-63
2021/12/08 06:16:41;;;;;;;17.43;9.13;;;;;;;-0.94;100.00;95242.03;10570055;28;20271;-64
2021/12/08 06:21:42;;;;;;;13.33;6.27;;;;;;;-0.90;100.00;95244.25;10569263;28;20181;-64
2021/12/08 06:26:43;;;;;;;12.37;7.40;;;;;;;-0.84;100.00;95229.25;10569778;28;20187;-63
2021/12/08 06:31:50;;;;;;;13.10;8.23;;;;;;;-0.85;100.00;95245.66;10569191;28;20360;-63
2021/12/08 06:36:58;;;;;;;11.27;6.03;;;;;;;-0.84;100.00;95231.84;10568904;28;20256;-62
2021/12/08 06:42:07;;;;;;;10.10;6.67;;;;;;;-0.94;100.00;95236.91;10568978;28;20170;-65
2021/12/08 06:47:11;;;;;;;15.57;6.43;;;;;;;-0.97;100.00;95229.44;10568634;28;20440;-60
2021/12/08 06:52:21;;;;;;;21.07;10.10;;;;;;;-1.13;100.00;95252.97;10595697;28;20166;-64
2021/12/08 06:57:27;;;;;;;18.60;9.60;;;;;;;-1.21;100.00;95253.59;10610273;28;20436;-62
2021/12/08 07:02:51;;;;;;;13.60;7.07;;;;;;;-1.19;100.00;95244.00;10610420;28;20178;-60
2021/12/08 07:07:54;;;;;;;19.43;10.23;;;;;;;-1.16;100.00;95264.31;10610125;28;20198;-62
2021/12/08 07:13:04;;;;;;;15.43;7.70;;;;;;;-1.13;100.00;95255.56;10610292;28;20182;-61
2021/12/08 07:18:12;;;;;;;16.00;8.57;;;;;;;-1.11;100.00;95251.91;10607017;28;20222;-61
2021/12/08 07:23:26;;;;;;;11.33;7.03;;;;;;;-1.01;100.00;95253.75;10606669;28;20342;-63
2021/12/08 07:28:27;;;;;;;12.17;7.57;;;;;;;-0.93;100.00;95259.09;10609739;28;20202;-60
2021/12/08 07:33:27;;;;;;;9.70;6.10;;;;;;;-0.76;100.00;95237.19;10608577;28;20173;-62
2021/12/08 07:38:30;;;;;;;8.30;5.60;;;;;;;-0.58;100.00;95234.91;10609387;28;20161;-60
2021/12/08 07:43:30;;;;;;;9.87;4.90;;;;;;;-0.43;100.00;95225.09;10609000;28;20353;-62
2021/12/08 07:48:38;;;;;;;11.83;6.00;;;;;;;-0.31;100.00;95221.50;10607102;28;20201;-62
2021/12/08 07:53:39;;;;;;;6.43;4.40;;;;;;;-0.14;98.24;95216.72;10593949;28;20315;-65
2021/12/08 07:58:42;;;;;;;6.67;4.20;;;;;;;0.01;97.30;95204.34;10607007;28;20173;-65
2021/12/08 08:03:43;;;;;;;8.20;4.27;;;;;;;0.01;95.99;95191.47;10604282;28;20181;-63
2021/12/08 08:08:43;;;;;;;6.43;4.27;;;;;;;0.06;96.51;95202.19;10612180;28;20435;-66
2021/12/08 08:13:44;;;;;;;7.93;4.77;;;;;;;0.15;95.43;95194.53;10614206;28;20184;-67
2021/12/08 08:18:52;;;;;;;8.33;3.90;;;;;;;0.30;93.86;95184.66;10615216;28;20164;-64
2021/12/08 08:23:53;;;;;;;4.97;3.60;;;;;;;0.40;92.94;95184.72;10614659;28;20174;-64
2021/12/08 08:28:53;;;;;;;17.03;7.53;;;;;;;0.38;92.46;95184.00;10614454;28;20253;-64
2021/12/08 08:33:54;;;;;;;8.50;4.20;;;;;;;0.46;91.33;95180.75;10614123;28;20173;-63
2021/12/08 08:39:03;;;;;;;8.73;5.10;;;;;;;0.42;91.74;95176.84;10614219;28;20268;-64
2021/12/08 08:44:08;;;;;;;9.00;5.03;;;;;;;0.41;91.44;95162.31;10613199;28;20193;-65
2021/12/08 08:49:23;;;;;;;8.10;4.60;;;;;;;0.55;90.57;95159.34;10614167;28;20258;-64
2021/12/08 08:54:23;;;;;;;8.30;3.63;;;;;;;0.61;90.24;95153.66;10613406;28;20174;-62
2021/12/08 08:59:33;;;;;;;7.67;4.03;;;;;;;0.76;88.44;95153.28;10612613;28;20168;-65
2021/12/08 09:04:38;;;;;;;10.37;3.53;;;;;;;0.81;87.82;95151.94;10613134;28;20166;-65
2021/12/08 09:09:41;;;;;;;9.30;4.67;;;;;;;0.93;86.96;95147.44;10613137;28;20198;-63
2021/12/08 09:14:47;;;;;;;7.63;4.23;;;;;;;0.95;87.13;95161.03;10599688;28;20232;-62
2021/12/08 09:20:01;;;;;;;8.53;5.70;;;;;;;1.21;87.10;95158.72;10612058;28;20187;-63
2021/12/08 09:25:06;;;;;;;7.80;3.77;;;;;;;0.94;86.43;95153.44;10612245;28;20169;-62
2021/12/08 09:30:12;;;;;;;7.17;3.97;;;;;;;0.93;85.89;95154.38;10604378;27;20220;-63
2021/12/08 09:35:23;;;;;;;6.70;3.93;;;;;;;1.18;84.29;95114.31;10592405;28;20254;-65
2021/12/08 09:40:32;;;;;;;7.63;4.43;;;;;;;1.18;84.20;95130.63;10583429;28;20242;-66
2021/12/08 09:45:39;;;;;;;7.47;5.00;;;;;;;1.56;83.90;95105.69;10578141;28;20238;-66
2021/12/08 09:50:39;;;;;;;6.50;3.93;;;;;;;1.57;82.98;95103.91;10604256;28;20208;-65
2021/12/08 09:55:40;;;;;;;8.27;5.63;;;;;;;1.61;82.63;95128.50;10587713;28;20243;-62
2021/12/08 10:00:42;;;;;;;7.20;3.00;;;;;;;1.37;82.79;95137.50;10588216;28;20402;-66
2021/12/08 10:05:43;;;;;;;6.83;3.77;;;;;;;1.24;83.80;95130.06;10570474;28;20175;-65
2021/12/08 10:10:46;;;;;;;8.97;5.67;;;;;;;1.27;84.45;95136.69;10575211;28;20255;-67
2021/12/08 10:15:49;;;;;;;9.87;5.40;;;;;;;1.56;82.56;95122.94;10574090;28;20221;-65
2021/12/08 10:20:53;;;;;;;11.13;5.97;;;;;;;1.69;83.76;95141.50;10599813;28;20176;-65
2021/12/08 10:25:56;;;;;;;11.57;6.80;;;;;;;1.57;82.16;95153.75;10569366;28;20340;-66
2021/12/08 10:31:13;;;;;;;8.80;5.27;;;;;;;1.16;81.85;95178.13;10567702;28;20399;-66
2021/12/08 10:36:34;;;;;;;13.33;6.50;;;;;;;1.17;83.34;95170.25;10577635;28;20232;-63
2021/12/08 10:42:01;;;;;;;12.23;5.80;;;;;;;1.58;79.68;95141.69;10566986;28;20173;-66
2021/12/08 10:47:03;;;;;;;13.17;7.33;;;;;;;1.42;81.68;95178.38;10566475;28;20202;-64
2021/12/08 10:57:31;;;;;;;13.37;8.10;;;;;;;0.84;86.32;95181.78;10580951;28;20176;-65
2021/12/08 11:02:46;;;;;;;13.50;7.20;;;;;;;1.01;86.76;95175.13;10608666;28;20237;-66
2021/12/08 11:08:13;;;;;;;12.70;6.40;;;;;;;1.08;84.92;95165.09;10578414;28;20202;-65
2021/12/08 11:13:16;;;;;;;12.20;7.03;;;;;;;1.30;85.22;95174.31;10564875;28;20180;-66
2021/12/08 11:18:21;;;;;;;11.57;6.37;;;;;;;1.63;83.41;95151.59;10565932;28;20221;-65
2021/12/08 11:23:39;;;;;;;14.17;7.07;;;;;;;1.52;81.37;95134.50;10571922;28;20307;-64
2021/12/08 11:28:40;;;;;;;12.93;7.80;;;;;;;1.23;82.43;95174.06;10564151;28;20276;-64
2021/12/08 11:33:44;;;;;;;17.47;8.27;;;;;;;1.25;82.59;95154.09;10564516;28;20174;-66
2021/12/08 11:38:47;;;;;;;14.90;9.43;;;;;;;1.09;83.84;95148.66;10568820;28;20200;-64
2021/12/08 11:43:56;;;;;;;17.13;9.63;;;;;;;1.24;83.95;95147.28;10597720;28;20227;-64
2021/12/08 11:49:04;;;;;;;15.40;8.67;;;;;;;1.31;85.37;95153.53;10606137;28;20214;-63
2021/12/08 11:54:04;;;;;;;29.07;11.27;;;;;;;1.44;82.78;95119.72;10606139;28;20189;-65
2021/12/08 11:59:09;;;;;;;14.93;8.20;;;;;;;1.72;83.35;95130.91;10597324;28;20170;-63
2021/12/08 12:04:10;;;;;;;18.10;9.73;;;;;;;1.78;84.82;95153.56;10570151;28;20174;-65
2021/12/08 12:09:11;;;;;;;14.53;9.57;;;;;;;1.90;87.13;95174.88;10565278;28;20412;-64
2021/12/08 12:14:11;;;;;;;17.97;10.50;;;;;;;1.54;90.04;95184.19;10566174;28;20189;-64
2021/12/08 12:19:16;;;;;;;15.87;9.87;;;;;;;1.04;89.54;95178.28;10573637;28;20395;-63
2021/12/08 12:24:33;;;;;;;16.10;9.67;;;;;;;1.42;89.56;95180.94;10563756;28;20220;-64
2021/12/08 12:29:58;;;;;;;18.60;11.17;;;;;;;0.42;89.38;95189.72;10580904;28;20282;-63
2021/12/08 12:35:10;;;;;;;20.00;11.00;;;;;;;0.35;90.79;95182.53;10570701;28;20293;-63
2021/12/08 12:40:15;;;;;;;23.27;12.90;;;;;;;-0.26;92.67;95191.09;10563085;28;20322;-62
2021/12/08 12:45:17;;;;;;;23.87;13.13;;;;;;;-0.42;94.39;95206.16;10564208;28;20205;-63
2021/12/08 12:50:24;;;;;;;31.30;16.33;;;;;;;-0.90;95.73;95210.03;10563198;28;20205;-64
2021/12/08 12:55:33;;;;;;;23.97;11.73;;;;;;;-0.84;98.39;95219.81;10569296;28;20166;-60
2021/12/08 13:00:42;;;;;;;158.87;70.20;;;;;;;-0.93;98.70;95217.97;10597161;28;20178;-65
2021/12/08 13:05:50;;;;;;;29.70;16.23;;;;;;;-1.05;100.00;95213.81;10603946;28;20295;-60
2021/12/08 13:10:52;;;;;;;29.70;14.10;;;;;;;-1.12;100.00;95196.31;10581689;28;20204;-64
2021/12/08 13:15:53;;;;;;;26.57;14.67;;;;;;;-1.22;100.00;95194.63;10571193;28;20230;-62
2021/12/08 13:20:56;;;;;;;34.87;19.07;;;;;;;-1.35;100.00;95192.19;10570254;28;20433;-62
2021/12/08 13:26:05;;;;;;;38.10;16.93;;;;;;;-1.22;100.00;95187.72;10600488;28;20182;-65
2021/12/08 13:31:13;;;;;;;31.83;15.13;;;;;;;-1.17;100.00;95177.06;10630190;27;20193;-66
2021/12/08 13:36:19;;;;;;;32.90;17.37;;;;;;;-1.10;100.00;95181.59;10611420;28;20419;-63
2021/12/08 13:41:21;;;;;;;31.57;16.03;;;;;;;-0.75;100.00;95174.53;10610911;28;20176;-64
2021/12/08 13:46:36;;;;;;;24.07;10.20;;;;;;;-0.76;100.00;95165.19;10590106;28;20182;-64
2021/12/08 13:51:36;;;;;;;28.90;13.40;;;;;;;-0.58;100.00;95158.56;10568824;28;20231;-63
2021/12/08 13:56:41;;;;;;;26.20;14.70;;;;;;;-0.52;100.00;95167.53;10570744;28;20247;-62
2021/12/08 14:01:41;;;;;;;28.80;13.70;;;;;;;-0.41;98.53;95166.63;10597014;28;20186;-64
2021/12/08 14:06:41;;;;;;;23.07;12.00;;;;;;;-0.47;98.04;95167.94;10608973;28;20206;-63
2021/12/08 14:11:42;;;;;;;27.57;13.87;;;;;;;-0.56;97.82;95171.28;10610180;28;20162;-64
2021/12/08 14:16:48;;;;;;;28.23;14.37;;;;;;;-0.52;98.29;95153.84;10609747;28;20266;-60
2021/12/08 14:21:48;;;;;;;26.57;13.70;;;;;;;-0.28;97.45;95158.69;10610390;28;20231;-63
2021/12/08 14:26:50;;;;;;;26.03;13.37;;;;;;;-0.22;96.08;95159.00;10607711;28;20466;-65
2021/12/08 14:31:57;;;;;;;26.20;13.23;;;;;;;-0.11;95.46;95150.38;10579790;28;20178;-64
2021/12/08 14:37:01;;;;;;;24.07;12.63;;;;;;;-0.10;94.10;95141.72;10594070;28;20207;-64
2021/12/08 14:42:13;;;;;;;25.07;12.37;;;;;;;-0.09;93.29;95140.78;10608944;28;20183;-64
2021/12/08 14:47:16;;;;;;;26.00;13.17;;;;;;;-0.07;94.15;95138.88;10607700;28;20206;-63
2021/12/08 14:52:17;;;;;;;23.23;12.37;;;;;;;-0.11;93.56;95134.91;10609389;28;20278;-63
2021/12/08 14:57:21;;;;;;;22.27;13.03;;;;;;;-0.17;94.54;95127.72;10607995;28;20166;-61
2021/12/08 15:02:39;;;;;;;27.33;14.10;;;;;;;-0.40;95.60;95139.94;10605717;28;20258;-64
2021/12/08 15:07:40;;;;;;;35.07;16.97;;;;;;;-0.82;100.00;95138.22;10589704;28;20213;-64
2021/12/08 15:12:43;;;;;;;28.07;14.00;;;;;;;-0.90;100.00;95135.47;10578723;28;20229;-65
2021/12/08 15:17:45;;;;;;;29.03;14.30;;;;;;;-1.03;100.00;95145.13;10573758;28;20229;-62
2021/12/08 15:22:47;;;;;;;32.27;14.43;;;;;;;-0.94;100.00;95157.22;10569548;28;20182;-64
2021/12/08 15:27:52;;;;;;;30.03;14.17;;;;;;;-1.06;100.00;95155.66;10564933;28;20234;-64
2021/12/08 15:33:11;;;;;;;26.67;13.87;;;;;;;-0.97;100.00;95157.47;10564089;28;20170;-64
2021/12/08 15:38:13;;;;;;;31.03;14.43;;;;;;;-0.90;100.00;95148.34;10595866;28;20185;-66
2021/12/08 15:43:15;;;;;;;27.07;13.70;;;;;;;-0.68;100.00;95141.44;10572016;28;20245;-67
2021/12/08 15:48:19;;;;;;;27.00;14.93;;;;;;;-0.91;100.00;95129.50;10587687;28;20220;-64
2021/12/08 15:53:27;;;;;;;28.27;15.23;;;;;;;-0.70;100.00;95125.28;10569386;28;20307;-66
2021/12/08 15:58:39;;;;;;;27.37;12.80;;;;;;;-0.68;100.00;95118.28;10572089;28;20401;-64
2021/12/08 16:03:56;;;;;;;36.83;18.77;;;;;;;-0.87;100.00;95126.69;10576663;28;20182;-64
2021/12/08 16:09:14;;;;;;;44.83;20.63;;;;;;;-1.11;100.00;95161.16;10571356;28;20455;-64
2021/12/08 16:14:22;;;;;;;43.83;20.83;;;;;;;-0.89;100.00;95170.50;10599463;28;20204;-64
2021/12/08 16:19:25;;;;;;;42.37;19.83;;;;;;;-1.04;100.00;95146.88;10572755;28;20268;-64
2021/12/08 16:24:25;;;;;;;40.43;19.33;;;;;;;-1.12;100.00;95157.78;10586203;28;20445;-63
2021/12/08 16:29:28;;;;;;;35.57;18.00;;;;;;;-1.16;100.00;95164.09;10587099;28;20257;-65
2021/12/08 16:34:28;;;;;;;32.80;16.60;;;;;;;-0.86;100.00;95159.16;10590540;28;20232;-64
2021/12/08 16:39:41;;;;;;;32.47;16.13;;;;;;;-0.96;100.00;95153.97;10583771;28;20286;-64
2021/12/08 16:44:41;;;;;;;34.20;16.50;;;;;;;-1.01;100.00;95166.34;10583631;28;20246;-64
2021/12/08 16:49:42;;;;;;;23.77;11.73;;;;;;;-1.19;100.00;95177.19;10578086;28;20202;-58
2021/12/08 16:54:45;;;;;;;32.93;12.13;;;;;;;-1.36;100.00;95190.53;10580303;28;20190;-62
2021/12/08 16:59:46;;;;;;;34.27;15.93;;;;;;;-1.49;100.00;95158.13;10565245;28;20191;-65
2021/12/08 17:04:46;;;;;;;33.13;16.10;;;;;;;-1.50;100.00;95156.50;10581996;28;20181;-62
2021/12/08 17:09:47;;;;;;;34.50;16.53;;;;;;;-1.54;100.00;95155.09;10570520;28;20233;-64
2021/12/08 17:14:47;;;;;;;32.83;16.17;;;;;;;-1.52;100.00;95145.53;10577496;28;20221;-64
2021/12/08 17:19:50;;;;;;;25.43;11.93;;;;;;;-1.54;100.00;95167.94;10608647;28;20178;-63
2021/12/08 17:24:51;;;;;;;26.07;13.43;;;;;;;-1.51;100.00;95154.88;10600521;28;20231;-63
2021/12/08 17:29:52;;;;;;;39.93;17.60;;;;;;;-1.53;100.00;95163.63;10580572;28;20221;-63
2021/12/08 17:34:54;;;;;;;38.27;18.23;;;;;;;-1.57;100.00;95152.78;10580188;28;20181;-60
2021/12/08 17:39:54;;;;;;;37.10;16.67;;;;;;;-1.53;100.00;95131.06;10609879;28;20223;-63
2021/12/08 17:44:54;;;;;;;38.33;16.27;;;;;;;-1.55;100.00;95117.50;10606239;28;20183;-62
2021/12/08 17:49:55;;;;;;;38.63;17.20;;;;;;;-1.66;100.00;95125.25;10585013;28;20198;-62
2021/12/08 17:54:55;;;;;;;35.00;15.63;;;;;;;-1.68;100.00;95153.63;10583077;28;20198;-62
2021/12/08 17:59:55;;;;;;;42.80;18.00;;;;;;;-1.61;100.00;95159.09;10577319;28;20272;-62
2021/12/08 18:04:56;;;;;;;39.67;16.13;;;;;;;-1.56;100.00;95185.25;10594532;28;20186;-60
2021/12/08 18:09:57;;;;;;;36.17;15.80;;;;;;;-1.56;100.00;95190.38;10595947;28;20221;-63
2021/12/08 18:14:58;;;;;;;37.73;15.77;;;;;;;-1.44;100.00;95180.88;10590894;28;20418;-62
2021/12/08 18:19:59;;;;;;;35.53;16.53;;;;;;;-1.38;100.00;95171.88;10598006;28;20179;-62
2021/12/08 18:24:59;;;;;;;35.00;16.60;;;;;;;-1.35;100.00;95154.47;10597592;28;20190;-60
2021/12/08 18:30:00;;;;;;;43.13;17.97;;;;;;;-1.23;100.00;95157.00;10585666;28;20260;-63
2021/12/08 18:35:04;;;;;;;37.03;17.47;;;;;;;-1.36;100.00;95163.13;10596609;28;20193;-63
2021/12/08 18:40:05;;;;;;;41.47;18.43;;;;;;;-1.30;100.00;95164.41;10588724;28;20189;-63
2021/12/08 18:45:06;;;;;;;41.37;17.57;;;;;;;-1.19;100.00;95150.69;10582452;28;20196;-64
2021/12/08 18:50:07;;;;;;;38.27;18.70;;;;;;;-1.23;100.00;95147.53;10571678;28;20442;-63
2021/12/08 18:55:07;;;;;;;36.70;17.80;;;;;;;-1.20;100.00;95152.41;10576194;28;20197;-63
2021/12/08 19:00:11;;;;;;;36.77;17.50;;;;;;;-1.16;100.00;95169.22;10589206;28;20248;-66
2021/12/08 19:05:16;;;;;;;39.73;17.40;;;;;;;-1.21;100.00;95166.22;10571589;28;20170;-65
2021/12/08 19:10:17;;;;;;;38.50;17.40;;;;;;;-1.32;100.00;95174.78;10578035;28;20496;-65
2021/12/08 19:15:18;;;;;;;32.87;16.70;;;;;;;-1.17;100.00;95165.03;10562600;28;20278;-63
2021/12/08 19:20:18;;;;;;;36.10;16.80;;;;;;;-1.20;100.00;95152.41;10561394;28;20182;-62
2021/12/08 19:25:21;;;;;;;34.67;16.97;;;;;;;-0.96;100.00;95157.34;10574983;28;20179;-64
2021/12/08 19:30:21;;;;;;;35.43;16.40;;;;;;;-1.03;100.00;95166.47;10556155;28;20226;-61
2021/12/08 19:35:22;;;;;;;40.40;17.73;;;;;;;-1.31;100.00;95170.47;10556503;28;20178;-60
2021/12/08 19:40:23;;;;;;;37.83;19.07;;;;;;;-1.53;100.00;95167.03;10555875;28;20163;-61
2021/12/08 19:45:27;;;;;;;35.63;18.90;;;;;;;-1.62;100.00;95163.41;10571305;28;20359;-61
2021/12/08 19:50:29;;;;;;;33.93;17.07;;;;;;;-1.59;100.00;95162.38;10600043;28;20447;-61
2021/12/08 19:55:30;;;;;;;40.30;17.80;;;;;;;-1.40;100.00;95160.91;10595935;28;20185;-63
2021/12/08 20:00:33;;;;;;;38.10;16.73;;;;;;;-1.58;100.00;95166.53;10582005;28;20194;-63
2021/12/08 20:05:36;;;;;;;33.83;16.47;;;;;;;-1.53;100.00;95173.88;10578751;28;20411;-60
2021/12/08 20:10:38;;;;;;;33.37;16.47;;;;;;;-1.69;100.00;95169.94;10569949;28;20207;-62
2021/12/08 20:15:39;;;;;;;36.10;17.17;;;;;;;-1.69;100.00;95167.38;10555818;28;991614;-62
2021/12/08 20:20:43;;;;;;;41.00;18.30;;;;;;;-1.60;100.00;95163.28;10602985;28;20270;-62
2021/12/08 20:25:44;;;;;;;35.73;17.20;;;;;;;-1.68;100.00;95143.34;10607586;28;20233;-62
2021/12/08 20:30:45;;;;;;;34.97;16.03;;;;;;;-1.50;100.00;95156.50;10604549;28;20619;-64
2021/12/08 20:35:46;;;;;;;31.83;15.37;;;;;;;-1.55;100.00;95140.63;10585300;28;20267;-62
2021/12/08 20:40:48;;;;;;;32.33;15.77;;;;;;;-1.35;100.00;95145.94;10587645;28;20184;-64
2021/12/08 20:45:49;;;;;;;34.43;15.97;;;;;;;-1.41;100.00;95146.44;10607104;28;20584;-64
2021/12/08 20:50:50;;;;;;;33.57;15.87;;;;;;;-1.27;100.00;95151.31;10606718;28;20208;-60
2021/12/08 20:55:52;;;;;;;34.47;17.50;;;;;;;-1.42;100.00;95157.63;10595980;28;20179;-64
2021/12/08 21:00:58;;;;;;;34.20;16.83;;;;;;;-1.39;100.00;95165.09;10599009;28;20201;-62
2021/12/08 21:05:59;;;;;;;33.73;16.33;;;;;;;-1.33;100.00;95167.19;10606167;28;20599;-65
2021/12/08 21:10:59;;;;;;;34.53;17.07;;;;;;;-1.41;100.00;95192.66;10606816;28;20221;-65
2021/12/08 21:16:00;;;;;;;33.23;16.90;;;;;;;-1.55;100.00;95194.56;10603128;28;20219;-64
2021/12/08 21:21:02;;;;;;;40.77;18.23;;;;;;;-1.49;100.00;95203.53;10571172;28;20162;-61
2021/12/08 21:26:03;;;;;;;38.57;17.67;;;;;;;-1.46;100.00;95209.25;10572153;28;20167;-64
2021/12/08 21:31:04;;;;;;;37.97;18.17;;;;;;;-1.46;100.00;95204.09;10582423;28;20190;-64
2021/12/08 21:36:04;;;;;;;34.43;18.30;;;;;;;-1.51;100.00;95219.06;10605973;28;20189;-62
2021/12/08 21:41:07;;;;;;;37.70;17.60;;;;;;;-1.54;100.00;95223.63;10604198;28;20170;-63
2021/12/08 21:46:08;;;;;;;36.20;18.17;;;;;;;-1.55;100.00;95212.53;10608030;28;20166;-64
2021/12/08 21:51:10;;;;;;;39.10;18.93;;;;;;;-1.55;100.00;95238.22;10601414;28;20194;-62
2021/12/08 21:56:11;;;;;;;32.37;17.43;;;;;;;-1.52;100.00;95220.00;10600828;28;20176;-65
2021/12/08 22:01:13;;;;;;;34.90;17.73;;;;;;;-1.51;100.00;95220.81;10598911;28;20334;-65
2021/12/08 22:06:13;;;;;;;40.67;19.40;;;;;;;-1.44;100.00;95235.63;10606050;28;20189;-64
2021/12/08 22:11:14;;;;;;;37.93;19.77;;;;;;;-1.28;100.00;95231.88;10612390;28;20329;-65
2021/12/08 22:16:16;;;;;;;41.87;19.33;;;;;;;-1.38;100.00;95233.50;10612777;28;20285;-63
2021/12/08 22:21:17;;;;;;;38.37;17.67;;;;;;;-1.29;100.00;95225.09;10612137;28;20277;-63
2021/12/08 22:26:18;;;;;;;36.60;18.40;;;;;;;-1.27;100.00;95228.38;10611389;28;20181;-61
2021/12/08 22:31:18;;;;;;;42.67;19.63;;;;;;;-1.40;100.00;95243.09;10611756;28;20420;-64
2021/12/08 22:36:20;;;;;;;36.20;18.50;;;;;;;-1.39;100.00;95247.28;10612018;28;20237;-64
2021/12/08 22:41:20;;;;;;;36.57;17.83;;;;;;;-1.39;100.00;95225.00;10611700;28;20190;-63
2021/12/08 22:46:21;;;;;;;36.73;17.60;;;;;;;-1.19;100.00;95233.72;10611488;28;20173;-63
2021/12/08 22:51:25;;;;;;;40.33;19.20;;;;;;;-1.40;100.00;95232.84;10611054;28;20198;-62
2021/12/08 22:56:26;;;;;;;38.67;19.63;;;;;;;-1.43;100.00;95233.88;10611269;28;20166;-64
2021/12/08 23:01:28;;;;;;;39.53;18.00;;;;;;;-1.26;100.00;95223.13;10610570;28;20422;-62
2021/12/08 23:06:28;;;;;;;39.80;17.97;;;;;;;-1.17;100.00;95203.56;10610864;28;20166;-65
2021/12/08 23:11:31;;;;;;;36.73;18.50;;;;;;;-1.30;100.00;95196.03;10610564;28;20201;-63
2021/12/08 23:16:31;;;;;;;38.17;18.63;;;;;;;-1.15;100.00;95196.56;10609868;28;20233;-63
2021/12/08 23:21:33;;;;;;;31.87;16.37;;;;;;;-1.04;100.00;95166.59;10610313;28;20237;-62
2021/12/08 23:26:34;;;;;;;35.00;17.20;;;;;;;-0.83;100.00;95149.44;10610168;28;20310;-65
2021/12/08 23:31:36;;;;;;;37.33;18.43;;;;;;;-1.09;100.00;95142.13;10609432;28;20201;-63
2021/12/08 23:36:46;;;;;;;40.10;19.37;;;;;;;-0.80;100.00;95130.41;10609538;28;20173;-59
2021/12/08 23:41:51;;;;;;;40.33;18.57;;;;;;;-0.70;100.00;95127.88;10610050;28;20177;-61
2021/12/08 23:46:53;;;;;;;40.93;19.47;;;;;;;-0.75;100.00;95125.69;10608768;28;20174;-60
2021/12/08 23:51:54;;;;;;;38.87;20.00;;;;;;;-1.05;100.00;95134.16;10609827;28;20166;-64